Boston, Massachusetts
Traffic Map
Current Weather Conditions
Boston, Massachusetts
Few Clouds
Few Clouds

Feels Like: -6°
Wind Chill: -6° Ceiling: Unl
Heat Index: Visibility: 10mi
Dew Point: -13° Wind: 20mph
Humidity: 35% Direction: 300° (WNW)
Pressure: 30.16in Gusts: 29mph
Raw Report DataKBOS 211854Z 30017G25KT 10SM FEW050 01/M13 A3016 RMK AO2 PK WND 28026/1840 SLP211 T00061133
Traffic Incident Summary
Active as of:
Severity:
Category:
InformationThere was an issue retrieving the traffic information for this location. Please try a different location or try again shortly.
Advertisements
Track Severe Weather on mobile